PWSweather.com
Personal Weather Stations
Station Observations
KTXNEWBR92
New Braunfels, TX

New Braunfels, TX

Lat: 29.722, Lon: -98.17

Elevation: 850

Station Type:

High Low Average
Temperature 50.0°F10.0°C 36.3°F2.4°C 42.0°F5.6°C
Dew Point 41.7°F5.4°C 34.9°F1.6°C 37.4°F3.0°C
Winds 7.6 mph 12.2 kmh Calm Calm 2.0 mph E3.2 kmh E
Wind Gusts 9.8 mph15.8 kmh -- 3.0 mph4.8 kmh
Humidity 95% 72% 84%
Pressure 30.00 in1015.9 mb 29.78 in1008.5 mb -
Precipitation 0.00 in0.0 mm - -
Hour Temp Dew Point Humidity Winds Wind Gusts Pressure Precip Precip Rate Daily Precip Total
12:04 AM 41.5°F5.3°C 39.9°F4.4°C 94% Calm Calm -- 29.77 in1008.1 mb 0.00 in0.0 mm 0.00 in0.0 mm 0.02 in0.5 mm
12:09 AM 41.5°F5.3°C 39.9°F4.4°C 94% Calm Calm -- 29.78 in1008.5 mb 0.00 in0.0 mm 0.00 in0.0 mm 0.02 in0.5 mm
12:14 AM 41.4°F5.2°C 39.7°F4.3°C 94% Calm Calm -- 29.78 in1008.5 mb 0.00 in0.0 mm 0.00 in0.0 mm 0.02 in0.5 mm
12:19 AM 41.0°F5.0°C 39.4°F4.1°C 94% Calm Calm -- 29.78 in1008.5 mb 0.00 in0.0 mm 0.00 in0.0 mm 0.02 in0.5 mm
12:24 AM 40.8°F4.9°C 39.2°F4.0°C 94% Calm Calm -- 29.79 in1008.8 mb 0.00 in0.0 mm 0.00 in0.0 mm 0.02 in0.5 mm
12:29 AM 40.6°F4.8°C 39.0°F3.9°C 94% Calm Calm -- 29.79 in1008.8 mb 0.00 in0.0 mm 0.00 in0.0 mm 0.02 in0.5 mm
12:34 AM 40.3°F4.6°C 38.7°F3.7°C 94% Calm Calm -- 29.80 in1009.1 mb 0.00 in0.0 mm 0.00 in0.0 mm 0.02 in0.5 mm
12:39 AM 40.1°F4.5°C 38.5°F3.6°C 94% Calm Calm -- 29.81 in1009.5 mb 0.00 in0.0 mm 0.00 in0.0 mm 0.02 in0.5 mm
12:44 AM 39.9°F4.4°C 38.3°F3.5°C 94% Calm Calm -- 29.81 in1009.5 mb 0.00 in0.0 mm 0.00 in0.0 mm 0.02 in0.5 mm
12:49 AM 39.7°F4.3°C 38.1°F3.4°C 94% Calm Calm -- 29.82 in1009.8 mb 0.00 in0.0 mm 0.00 in0.0 mm 0.02 in0.5 mm
12:54 AM 39.4°F4.1°C 37.8°F3.2°C 94% Calm Calm -- 29.82 in1009.8 mb 0.00 in0.0 mm 0.00 in0.0 mm 0.02 in0.5 mm
01:04 AM 38.7°F3.7°C 37.0°F2.8°C 94% Calm Calm -- 29.82 in1009.8 mb 0.00 in0.0 mm 0.00 in0.0 mm 0.00 in0.0 mm
01:09 AM 38.5°F3.6°C 36.9°F2.7°C 94% Calm Calm -- 29.82 in1009.8 mb 0.00 in0.0 mm 0.00 in0.0 mm 0.00 in0.0 mm
01:14 AM 38.3°F3.5°C 36.7°F2.6°C 94% Calm Calm -- 29.82 in1009.8 mb 0.00 in0.0 mm 0.00 in0.0 mm 0.00 in0.0 mm
01:19 AM 38.3°F3.5°C 36.7°F2.6°C 94% Calm Calm -- 29.82 in1009.8 mb 0.00 in0.0 mm 0.00 in0.0 mm 0.00 in0.0 mm
01:24 AM 38.1°F3.4°C 36.5°F2.5°C 94% Calm Calm -- 29.82 in1009.8 mb 0.00 in0.0 mm 0.00 in0.0 mm 0.00 in0.0 mm
01:29 AM 37.9°F3.3°C 36.3°F2.4°C 94% Calm Calm -- 29.81 in1009.5 mb 0.00 in0.0 mm 0.00 in0.0 mm 0.00 in0.0 mm
01:34 AM 37.8°F3.2°C 36.1°F2.3°C 94% Calm Calm -- 29.82 in1009.8 mb 0.00 in0.0 mm 0.00 in0.0 mm 0.00 in0.0 mm
01:39 AM 37.6°F3.1°C 36.0°F2.2°C 94% Calm Calm -- 29.81 in1009.5 mb 0.00 in0.0 mm 0.00 in0.0 mm 0.00 in0.0 mm
01:44 AM 37.6°F3.1°C 36.0°F2.2°C 94% Calm Calm -- 29.81 in1009.5 mb 0.00 in0.0 mm 0.00 in0.0 mm 0.00 in0.0 mm
01:49 AM 37.4°F3.0°C 35.8°F2.1°C 94% Calm Calm -- 29.81 in1009.5 mb 0.00 in0.0 mm 0.00 in0.0 mm 0.00 in0.0 mm
01:54 AM 37.6°F3.1°C 36.0°F2.2°C 94% Calm Calm -- 29.81 in1009.5 mb 0.00 in0.0 mm 0.00 in0.0 mm 0.00 in0.0 mm
01:59 AM 37.4°F3.0°C 35.8°F2.1°C 94% Calm Calm -- 29.80 in1009.1 mb 0.00 in0.0 mm 0.00 in0.0 mm 0.00 in0.0 mm
02:04 AM 37.6°F3.1°C 36.0°F2.2°C 94% Calm Calm -- 29.80 in1009.1 mb 0.00 in0.0 mm 0.00 in0.0 mm 0.00 in0.0 mm
02:09 AM 37.6°F3.1°C 36.0°F2.2°C 94% Calm Calm -- 29.80 in1009.1 mb 0.00 in0.0 mm 0.00 in0.0 mm 0.00 in0.0 mm
02:14 AM 37.8°F3.2°C 36.1°F2.3°C 94% Calm Calm -- 29.80 in1009.1 mb 0.00 in0.0 mm 0.00 in0.0 mm 0.00 in0.0 mm
02:19 AM 37.8°F3.2°C 36.1°F2.3°C 94% Calm Calm -- 29.80 in1009.1 mb 0.00 in0.0 mm 0.00 in0.0 mm 0.00 in0.0 mm
02:24 AM 37.6°F3.1°C 36.0°F2.2°C 94% Calm Calm -- 29.79 in1008.8 mb 0.00 in0.0 mm 0.00 in0.0 mm 0.00 in0.0 mm
02:29 AM 37.8°F3.2°C 36.1°F2.3°C 94% Calm Calm -- 29.79 in1008.8 mb 0.00 in0.0 mm 0.00 in0.0 mm 0.00 in0.0 mm
02:34 AM 37.6°F3.1°C 36.0°F2.2°C 94% Calm Calm -- 29.79 in1008.8 mb 0.00 in0.0 mm 0.00 in0.0 mm 0.00 in0.0 mm
02:39 AM 37.6°F3.1°C 36.0°F2.2°C 94% Calm Calm -- 29.79 in1008.8 mb 0.00 in0.0 mm 0.00 in0.0 mm 0.00 in0.0 mm
02:44 AM 37.6°F3.1°C 36.0°F2.2°C 94% Calm Calm -- 29.78 in1008.5 mb 0.00 in0.0 mm 0.00 in0.0 mm 0.00 in0.0 mm
02:49 AM 37.6°F3.1°C 36.0°F2.2°C 94% Calm Calm -- 29.78 in1008.5 mb 0.00 in0.0 mm 0.00 in0.0 mm 0.00 in0.0 mm
02:54 AM 37.4°F3.0°C 35.8°F2.1°C 94% Calm Calm -- 29.79 in1008.8 mb 0.00 in0.0 mm 0.00 in0.0 mm 0.00 in0.0 mm
02:59 AM 37.4°F3.0°C 35.8°F2.1°C 94% Calm Calm -- 29.79 in1008.8 mb 0.00 in0.0 mm 0.00 in0.0 mm 0.00 in0.0 mm
03:04 AM 37.2°F2.9°C 35.6°F2.0°C 94% Calm Calm -- 29.79 in1008.8 mb 0.00 in0.0 mm 0.00 in0.0 mm 0.00 in0.0 mm
03:09 AM 37.0°F2.8°C 35.4°F1.9°C 94% Calm Calm -- 29.80 in1009.1 mb 0.00 in0.0 mm 0.00 in0.0 mm 0.00 in0.0 mm
03:14 AM 37.0°F2.8°C 35.4°F1.9°C 94% Calm Calm -- 29.80 in1009.1 mb 0.00 in0.0 mm 0.00 in0.0 mm 0.00 in0.0 mm
03:19 AM 36.9°F2.7°C 35.2°F1.8°C 94% Calm Calm -- 29.80 in1009.1 mb 0.00 in0.0 mm 0.00 in0.0 mm 0.00 in0.0 mm
03:24 AM 36.7°F2.6°C 35.1°F1.7°C 94% Calm Calm -- 29.80 in1009.1 mb 0.00 in0.0 mm 0.00 in0.0 mm 0.00 in0.0 mm
03:29 AM 36.5°F2.5°C 34.9°F1.6°C 94% Calm Calm -- 29.80 in1009.1 mb 0.00 in0.0 mm 0.00 in0.0 mm 0.00 in0.0 mm
03:34 AM 36.5°F2.5°C 34.9°F1.6°C 94% Calm Calm -- 29.80 in1009.1 mb 0.00 in0.0 mm 0.00 in0.0 mm 0.00 in0.0 mm
03:39 AM 36.3°F2.4°C 35.1°F1.7°C 95% Calm Calm -- 29.80 in1009.1 mb 0.00 in0.0 mm 0.00 in0.0 mm 0.00 in0.0 mm
03:44 AM 36.5°F2.5°C 35.2°F1.8°C 95% Calm Calm -- 29.80 in1009.1 mb 0.00 in0.0 mm 0.00 in0.0 mm 0.00 in0.0 mm
03:49 AM 36.7°F2.6°C 35.4°F1.9°C 95% Calm Calm -- 29.81 in1009.5 mb 0.00 in0.0 mm 0.00 in0.0 mm 0.00 in0.0 mm
03:54 AM 36.9°F2.7°C 35.6°F2.0°C 95% Calm Calm -- 29.81 in1009.5 mb 0.00 in0.0 mm 0.00 in0.0 mm 0.00 in0.0 mm
03:59 AM 36.9°F2.7°C 35.6°F2.0°C 95% Calm Calm -- 29.81 in1009.5 mb 0.00 in0.0 mm 0.00 in0.0 mm 0.00 in0.0 mm
04:04 AM 37.0°F2.8°C 35.8°F2.1°C 95% Calm Calm -- 29.82 in1009.8 mb 0.00 in0.0 mm 0.00 in0.0 mm 0.00 in0.0 mm
04:09 AM 37.2°F2.9°C 36.0°F2.2°C 95% Calm Calm -- 29.82 in1009.8 mb 0.00 in0.0 mm 0.00 in0.0 mm 0.00 in0.0 mm
04:14 AM 37.2°F2.9°C 36.0°F2.2°C 95% Calm Calm -- 29.82 in1009.8 mb 0.00 in0.0 mm 0.00 in0.0 mm 0.00 in0.0 mm
04:19 AM 37.4°F3.0°C 35.8°F2.1°C 94% Calm Calm -- 29.82 in1009.8 mb 0.00 in0.0 mm 0.00 in0.0 mm 0.00 in0.0 mm
04:24 AM 37.4°F3.0°C 35.8°F2.1°C 94% Calm Calm -- 29.81 in1009.5 mb 0.00 in0.0 mm 0.00 in0.0 mm 0.00 in0.0 mm
04:29 AM 37.4°F3.0°C 35.8°F2.1°C 94% Calm Calm -- 29.81 in1009.5 mb 0.00 in0.0 mm 0.00 in0.0 mm 0.00 in0.0 mm
04:34 AM 37.2°F2.9°C 35.6°F2.0°C 94% Calm Calm -- 29.82 in1009.8 mb 0.00 in0.0 mm 0.00 in0.0 mm 0.00 in0.0 mm
04:39 AM 37.2°F2.9°C 35.6°F2.0°C 94% Calm Calm -- 29.81 in1009.5 mb 0.00 in0.0 mm 0.00 in0.0 mm 0.00 in0.0 mm
04:44 AM 37.0°F2.8°C 35.4°F1.9°C 94% Calm Calm -- 29.81 in1009.5 mb 0.00 in0.0 mm 0.00 in0.0 mm 0.00 in0.0 mm
04:49 AM 36.7°F2.6°C 35.4°F1.9°C 95% Calm Calm -- 29.80 in1009.1 mb 0.00 in0.0 mm 0.00 in0.0 mm 0.00 in0.0 mm
04:54 AM 36.7°F2.6°C 35.4°F1.9°C 95% Calm Calm -- 29.81 in1009.5 mb 0.00 in0.0 mm 0.00 in0.0 mm 0.00 in0.0 mm
04:59 AM 36.7°F2.6°C 35.4°F1.9°C 95% Calm Calm -- 29.81 in1009.5 mb 0.00 in0.0 mm 0.00 in0.0 mm 0.00 in0.0 mm
05:04 AM 37.0°F2.8°C 35.8°F2.1°C 95% Calm Calm -- 29.81 in1009.5 mb 0.00 in0.0 mm 0.00 in0.0 mm 0.00 in0.0 mm
05:09 AM 37.8°F3.2°C 36.5°F2.5°C 95% 0.2 mph NE0.3 kmh NE 2.5 mph4.0 kmh 29.80 in1009.1 mb 0.00 in0.0 mm 0.00 in0.0 mm 0.00 in0.0 mm
05:14 AM 38.5°F3.6°C 37.2°F2.9°C 95% Calm Calm -- 29.81 in1009.5 mb 0.00 in0.0 mm 0.00 in0.0 mm 0.00 in0.0 mm
05:19 AM 39.2°F4.0°C 37.9°F3.3°C 95% 0.2 mph NE0.3 kmh NE 2.5 mph4.0 kmh 29.82 in1009.8 mb 0.00 in0.0 mm 0.00 in0.0 mm 0.00 in0.0 mm
05:24 AM 39.7°F4.3°C 38.5°F3.6°C 95% Calm Calm -- 29.82 in1009.8 mb 0.00 in0.0 mm 0.00 in0.0 mm 0.00 in0.0 mm
05:29 AM 40.1°F4.5°C 38.8°F3.8°C 95% Calm Calm -- 29.81 in1009.5 mb 0.00 in0.0 mm 0.00 in0.0 mm 0.00 in0.0 mm
05:34 AM 40.5°F4.7°C 39.2°F4.0°C 95% Calm Calm -- 29.82 in1009.8 mb 0.00 in0.0 mm 0.00 in0.0 mm 0.00 in0.0 mm
05:39 AM 40.5°F4.7°C 39.2°F4.0°C 95% Calm Calm -- 29.82 in1009.8 mb 0.00 in0.0 mm 0.00 in0.0 mm 0.00 in0.0 mm
05:44 AM 40.5°F4.7°C 39.2°F4.0°C 95% Calm Calm -- 29.82 in1009.8 mb 0.00 in0.0 mm 0.00 in0.0 mm 0.00 in0.0 mm
05:49 AM 40.5°F4.7°C 39.2°F4.0°C 95% Calm Calm -- 29.82 in1009.8 mb 0.00 in0.0 mm 0.00 in0.0 mm 0.00 in0.0 mm
05:54 AM 40.5°F4.7°C 39.2°F4.0°C 95% Calm Calm -- 29.82 in1009.8 mb 0.00 in0.0 mm 0.00 in0.0 mm 0.00 in0.0 mm
05:59 AM 40.5°F4.7°C 39.2°F4.0°C 95% 0.2 mph N0.3 kmh N 2.5 mph4.0 kmh 29.83 in1010.2 mb 0.00 in0.0 mm 0.00 in0.0 mm 0.00 in0.0 mm
06:04 AM 40.5°F4.7°C 39.2°F4.0°C 95% 0.4 mph ENE0.6 kmh ENE 2.5 mph4.0 kmh 29.83 in1010.2 mb 0.00 in0.0 mm 0.00 in0.0 mm 0.00 in0.0 mm
06:09 AM 40.5°F4.7°C 39.2°F4.0°C 95% Calm Calm -- 29.83 in1010.2 mb 0.00 in0.0 mm 0.00 in0.0 mm 0.00 in0.0 mm
06:14 AM 40.5°F4.7°C 39.2°F4.0°C 95% Calm Calm -- 29.83 in1010.2 mb 0.00 in0.0 mm 0.00 in0.0 mm 0.00 in0.0 mm
06:19 AM 40.5°F4.7°C 39.2°F4.0°C 95% 0.2 mph N0.3 kmh N 2.5 mph4.0 kmh 29.83 in1010.2 mb 0.00 in0.0 mm 0.00 in0.0 mm 0.00 in0.0 mm
06:24 AM 40.5°F4.7°C 39.2°F4.0°C 95% Calm Calm -- 29.83 in1010.2 mb 0.00 in0.0 mm 0.00 in0.0 mm 0.00 in0.0 mm
06:29 AM 40.3°F4.6°C 38.7°F3.7°C 94% 1.1 mph NE1.8 kmh NE 2.5 mph4.0 kmh 29.83 in1010.2 mb 0.00 in0.0 mm 0.00 in0.0 mm 0.00 in0.0 mm
06:34 AM 40.3°F4.6°C 38.7°F3.7°C 94% Calm Calm -- 29.83 in1010.2 mb 0.00 in0.0 mm 0.00 in0.0 mm 0.00 in0.0 mm
06:39 AM 40.1°F4.5°C 38.3°F3.5°C 93% Calm Calm -- 29.84 in1010.5 mb 0.00 in0.0 mm 0.00 in0.0 mm 0.00 in0.0 mm
06:44 AM 40.1°F4.5°C 37.2°F2.9°C 89% 1.3 mph E2.1 kmh E 2.5 mph4.0 kmh 29.84 in1010.5 mb 0.00 in0.0 mm 0.00 in0.0 mm 0.00 in0.0 mm
06:49 AM 39.9°F4.4°C 36.7°F2.6°C 88% 0.4 mph E0.6 kmh E 2.5 mph4.0 kmh 29.85 in1010.8 mb 0.00 in0.0 mm 0.00 in0.0 mm 0.00 in0.0 mm
06:54 AM 40.1°F4.5°C 36.9°F2.7°C 88% Calm Calm -- 29.85 in1010.8 mb 0.00 in0.0 mm 0.00 in0.0 mm 0.00 in0.0 mm
06:59 AM 40.1°F4.5°C 36.5°F2.5°C 87% 1.1 mph NE1.8 kmh NE 2.5 mph4.0 kmh 29.86 in1011.2 mb 0.00 in0.0 mm 0.00 in0.0 mm 0.00 in0.0 mm
07:04 AM 40.3°F4.6°C 36.5°F2.5°C 86% 1.8 mph NE2.9 kmh NE 4.9 mph7.9 kmh 29.87 in1011.5 mb 0.00 in0.0 mm 0.00 in0.0 mm 0.00 in0.0 mm
07:09 AM 40.5°F4.7°C 36.3°F2.4°C 85% 2.0 mph N3.2 kmh N 2.5 mph4.0 kmh 29.87 in1011.5 mb 0.00 in0.0 mm 0.00 in0.0 mm 0.00 in0.0 mm
07:14 AM 40.6°F4.8°C 36.5°F2.5°C 85% Calm Calm -- 29.88 in1011.9 mb 0.00 in0.0 mm 0.00 in0.0 mm 0.00 in0.0 mm
07:19 AM 40.8°F4.9°C 36.3°F2.4°C 84% 2.0 mph NE3.2 kmh NE 2.5 mph4.0 kmh 29.87 in1011.5 mb 0.00 in0.0 mm 0.00 in0.0 mm 0.00 in0.0 mm
07:24 AM 40.8°F4.9°C 36.3°F2.4°C 84% 2.9 mph NNW4.7 kmh NNW 4.9 mph7.9 kmh 29.88 in1011.9 mb 0.00 in0.0 mm 0.00 in0.0 mm 0.00 in0.0 mm
07:29 AM 41.0°F5.0°C 36.5°F2.5°C 84% 1.3 mph NE2.1 kmh NE 2.5 mph4.0 kmh 29.88 in1011.9 mb 0.00 in0.0 mm 0.00 in0.0 mm 0.00 in0.0 mm
07:34 AM 41.2°F5.1°C 36.5°F2.5°C 83% Calm Calm -- 29.88 in1011.9 mb 0.00 in0.0 mm 0.00 in0.0 mm 0.00 in0.0 mm
07:39 AM 41.4°F5.2°C 36.9°F2.7°C 84% 3.4 mph NNE5.5 kmh NNE 4.9 mph7.9 kmh 29.88 in1011.9 mb 0.00 in0.0 mm 0.00 in0.0 mm 0.00 in0.0 mm
07:44 AM 41.4°F5.2°C 36.9°F2.7°C 84% 3.4 mph NNE5.5 kmh NNE 4.9 mph7.9 kmh 29.88 in1011.9 mb 0.00 in0.0 mm 0.00 in0.0 mm 0.00 in0.0 mm
07:49 AM 41.4°F5.2°C 36.7°F2.6°C 83% 3.6 mph NE5.8 kmh NE 4.9 mph7.9 kmh 29.88 in1011.9 mb 0.00 in0.0 mm 0.00 in0.0 mm 0.00 in0.0 mm
07:54 AM 41.4°F5.2°C 36.7°F2.6°C 83% 4.0 mph NE6.4 kmh NE 7.4 mph11.9 kmh 29.89 in1012.2 mb 0.00 in0.0 mm 0.00 in0.0 mm 0.00 in0.0 mm
07:59 AM 41.4°F5.2°C 36.3°F2.4°C 82% 2.5 mph N4.0 kmh N 4.9 mph7.9 kmh 29.89 in1012.2 mb 0.00 in0.0 mm 0.00 in0.0 mm 0.00 in0.0 mm
08:04 AM 41.4°F5.2°C 36.7°F2.6°C 83% 1.8 mph NE2.9 kmh NE 2.5 mph4.0 kmh 29.90 in1012.5 mb 0.00 in0.0 mm 0.00 in0.0 mm 0.00 in0.0 mm
08:09 AM 41.4°F5.2°C 36.7°F2.6°C 83% 4.3 mph NE6.9 kmh NE 4.9 mph7.9 kmh 29.90 in1012.5 mb 0.00 in0.0 mm 0.00 in0.0 mm 0.00 in0.0 mm
08:14 AM 41.4°F5.2°C 36.3°F2.4°C 82% 0.4 mph NE0.6 kmh NE 2.5 mph4.0 kmh 29.90 in1012.5 mb 0.00 in0.0 mm 0.00 in0.0 mm 0.00 in0.0 mm
08:19 AM 41.4°F5.2°C 36.7°F2.6°C 83% 0.2 mph NE0.3 kmh NE 2.5 mph4.0 kmh 29.90 in1012.5 mb 0.00 in0.0 mm 0.00 in0.0 mm 0.00 in0.0 mm
08:24 AM 41.4°F5.2°C 36.7°F2.6°C 83% 1.8 mph NE2.9 kmh NE 4.9 mph7.9 kmh 29.90 in1012.5 mb 0.00 in0.0 mm 0.00 in0.0 mm 0.00 in0.0 mm
08:29 AM 41.4°F5.2°C 36.7°F2.6°C 83% 4.0 mph NW6.4 kmh NW 4.9 mph7.9 kmh 29.91 in1012.9 mb 0.00 in0.0 mm 0.00 in0.0 mm 0.00 in0.0 mm
08:34 AM 41.4°F5.2°C 36.7°F2.6°C 83% 0.9 mph NE1.4 kmh NE 2.5 mph4.0 kmh 29.91 in1012.9 mb 0.00 in0.0 mm 0.00 in0.0 mm 0.00 in0.0 mm
08:39 AM 41.4°F5.2°C 36.7°F2.6°C 83% 2.7 mph NNE4.3 kmh NNE 4.9 mph7.9 kmh 29.91 in1012.9 mb 0.00 in0.0 mm 0.00 in0.0 mm 0.00 in0.0 mm
08:44 AM 41.2°F5.1°C 36.5°F2.5°C 83% 0.2 mph NE0.3 kmh NE 2.5 mph4.0 kmh 29.91 in1012.9 mb 0.00 in0.0 mm 0.00 in0.0 mm 0.00 in0.0 mm
08:49 AM 41.2°F5.1°C 36.5°F2.5°C 83% Calm Calm -- 29.92 in1013.2 mb 0.00 in0.0 mm 0.00 in0.0 mm 0.00 in0.0 mm
08:54 AM 41.2°F5.1°C 36.5°F2.5°C 83% Calm Calm -- 29.91 in1012.9 mb 0.00 in0.0 mm 0.00 in0.0 mm 0.00 in0.0 mm
08:59 AM 41.2°F5.1°C 36.7°F2.6°C 84% 1.1 mph SE1.8 kmh SE 2.5 mph4.0 kmh 29.91 in1012.9 mb 0.00 in0.0 mm 0.00 in0.0 mm 0.00 in0.0 mm
09:04 AM 41.2°F5.1°C 36.5°F2.5°C 83% 0.2 mph E0.3 kmh E 2.5 mph4.0 kmh 29.91 in1012.9 mb 0.00 in0.0 mm 0.00 in0.0 mm 0.00 in0.0 mm
09:09 AM 41.2°F5.1°C 36.5°F2.5°C 83% Calm Calm -- 29.92 in1013.2 mb 0.00 in0.0 mm 0.00 in0.0 mm 0.00 in0.0 mm
09:14 AM 41.2°F5.1°C 36.5°F2.5°C 83% 4.9 mph N7.9 kmh N 7.4 mph11.9 kmh 29.92 in1013.2 mb 0.00 in0.0 mm 0.00 in0.0 mm 0.00 in0.0 mm
09:19 AM 41.2°F5.1°C 36.5°F2.5°C 83% Calm Calm -- 29.93 in1013.5 mb 0.00 in0.0 mm 0.00 in0.0 mm 0.00 in0.0 mm
09:24 AM 41.4°F5.2°C 36.7°F2.6°C 83% 0.2 mph E0.3 kmh E 2.5 mph4.0 kmh 29.94 in1013.9 mb 0.00 in0.0 mm 0.00 in0.0 mm 0.00 in0.0 mm
09:29 AM 41.4°F5.2°C 36.7°F2.6°C 83% 0.4 mph E0.6 kmh E 2.5 mph4.0 kmh 29.95 in1014.2 mb 0.00 in0.0 mm 0.00 in0.0 mm 0.00 in0.0 mm
09:34 AM 41.5°F5.3°C 36.9°F2.7°C 83% 2.0 mph NE3.2 kmh NE 4.9 mph7.9 kmh 29.95 in1014.2 mb 0.00 in0.0 mm 0.00 in0.0 mm 0.00 in0.0 mm
09:39 AM 41.7°F5.4°C 37.0°F2.8°C 83% 5.8 mph N9.3 kmh N 9.8 mph15.8 kmh 29.96 in1014.6 mb 0.00 in0.0 mm 0.00 in0.0 mm 0.00 in0.0 mm
09:44 AM 41.9°F5.5°C 37.2°F2.9°C 83% 0.9 mph E1.4 kmh E 2.5 mph4.0 kmh 29.96 in1014.6 mb 0.00 in0.0 mm 0.00 in0.0 mm 0.00 in0.0 mm
09:49 AM 41.9°F5.5°C 37.2°F2.9°C 83% 0.9 mph NE1.4 kmh NE 2.5 mph4.0 kmh 29.98 in1015.2 mb 0.00 in0.0 mm 0.00 in0.0 mm 0.00 in0.0 mm
09:54 AM 41.9°F5.5°C 37.2°F2.9°C 83% 2.0 mph E3.2 kmh E 4.9 mph7.9 kmh 29.99 in1015.6 mb 0.00 in0.0 mm 0.00 in0.0 mm 0.00 in0.0 mm
09:59 AM 42.1°F5.6°C 37.2°F2.9°C 83% 2.0 mph ENE3.2 kmh ENE 2.5 mph4.0 kmh 29.98 in1015.2 mb 0.00 in0.0 mm 0.00 in0.0 mm 0.00 in0.0 mm
10:04 AM 42.1°F5.6°C 37.2°F2.9°C 83% 4.0 mph N6.4 kmh N 7.4 mph11.9 kmh 29.97 in1014.9 mb 0.00 in0.0 mm 0.00 in0.0 mm 0.00 in0.0 mm
10:09 AM 42.1°F5.6°C 37.2°F2.9°C 83% 1.3 mph NNE2.1 kmh NNE 2.5 mph4.0 kmh 29.98 in1015.2 mb 0.00 in0.0 mm 0.00 in0.0 mm 0.00 in0.0 mm
10:14 AM 42.1°F5.6°C 37.2°F2.9°C 83% 1.1 mph ENE1.8 kmh ENE 2.5 mph4.0 kmh 29.98 in1015.2 mb 0.00 in0.0 mm 0.00 in0.0 mm 0.00 in0.0 mm
10:19 AM 42.1°F5.6°C 37.2°F2.9°C 83% 1.8 mph N2.9 kmh N 2.5 mph4.0 kmh 29.98 in1015.2 mb 0.00 in0.0 mm 0.00 in0.0 mm 0.00 in0.0 mm
10:24 AM 42.1°F5.6°C 37.2°F2.9°C 83% 0.2 mph E0.3 kmh E 2.5 mph4.0 kmh 29.99 in1015.6 mb 0.00 in0.0 mm 0.00 in0.0 mm 0.00 in0.0 mm
10:29 AM 42.1°F5.6°C 37.2°F2.9°C 83% 0.9 mph E1.4 kmh E 2.5 mph4.0 kmh 29.98 in1015.2 mb 0.00 in0.0 mm 0.00 in0.0 mm 0.00 in0.0 mm
10:34 AM 42.3°F5.7°C 37.4°F3.0°C 83% 0.9 mph NE1.4 kmh NE 2.5 mph4.0 kmh 29.99 in1015.6 mb 0.00 in0.0 mm 0.00 in0.0 mm 0.00 in0.0 mm
10:39 AM 42.3°F5.7°C 37.4°F3.0°C 83% 2.0 mph ENE3.2 kmh ENE 2.5 mph4.0 kmh 29.98 in1015.2 mb 0.00 in0.0 mm 0.00 in0.0 mm 0.00 in0.0 mm
10:44 AM 42.6°F5.9°C 37.6°F3.1°C 82% 0.9 mph NE1.4 kmh NE 4.9 mph7.9 kmh 29.98 in1015.2 mb 0.00 in0.0 mm 0.00 in0.0 mm 0.00 in0.0 mm
10:49 AM 42.8°F6.0°C 37.8°F3.2°C 82% 2.0 mph NE3.2 kmh NE 2.5 mph4.0 kmh 29.99 in1015.6 mb 0.00 in0.0 mm 0.00 in0.0 mm 0.00 in0.0 mm
10:54 AM 43.0°F6.1°C 37.9°F3.3°C 82% 0.2 mph ENE0.3 kmh ENE 2.5 mph4.0 kmh 30.00 in1015.9 mb 0.00 in0.0 mm 0.00 in0.0 mm 0.00 in0.0 mm
10:59 AM 43.2°F6.2°C 38.1°F3.4°C 82% Calm Calm -- 29.99 in1015.6 mb 0.00 in0.0 mm 0.00 in0.0 mm 0.00 in0.0 mm
11:04 AM 43.3°F6.3°C 37.9°F3.3°C 81% 3.6 mph E5.8 kmh E 4.9 mph7.9 kmh 29.99 in1015.6 mb 0.00 in0.0 mm 0.00 in0.0 mm 0.00 in0.0 mm
11:09 AM 43.3°F6.3°C 37.9°F3.3°C 81% Calm Calm -- 29.98 in1015.2 mb 0.00 in0.0 mm 0.00 in0.0 mm 0.00 in0.0 mm
11:14 AM 43.5°F6.4°C 38.1°F3.4°C 81% 2.0 mph E3.2 kmh E 4.9 mph7.9 kmh 29.99 in1015.6 mb 0.00 in0.0 mm 0.00 in0.0 mm 0.00 in0.0 mm
11:19 AM 43.9°F6.6°C 38.1°F3.4°C 80% 0.2 mph ENE0.3 kmh ENE 2.5 mph4.0 kmh 29.99 in1015.6 mb 0.00 in0.0 mm 0.00 in0.0 mm 0.00 in0.0 mm
11:24 AM 44.2°F6.8°C 38.1°F3.4°C 79% 0.2 mph NNE0.3 kmh NNE 2.5 mph4.0 kmh 29.99 in1015.6 mb 0.00 in0.0 mm 0.00 in0.0 mm 0.00 in0.0 mm
11:29 AM 44.8°F7.1°C 37.8°F3.2°C 76% 4.5 mph NNE7.2 kmh NNE 7.4 mph11.9 kmh 29.99 in1015.6 mb 0.00 in0.0 mm 0.00 in0.0 mm 0.00 in0.0 mm
11:34 AM 45.3°F7.4°C 38.5°F3.6°C 77% 1.1 mph N1.8 kmh N 2.5 mph4.0 kmh 29.99 in1015.6 mb 0.00 in0.0 mm 0.00 in0.0 mm 0.00 in0.0 mm
11:39 AM 45.9°F7.7°C 39.0°F3.9°C 77% 1.1 mph E1.8 kmh E 2.5 mph4.0 kmh 29.99 in1015.6 mb 0.00 in0.0 mm 0.00 in0.0 mm 0.00 in0.0 mm
11:44 AM 46.2°F7.9°C 39.4°F4.1°C 77% 2.0 mph N3.2 kmh N 4.9 mph7.9 kmh 29.98 in1015.2 mb 0.00 in0.0 mm 0.00 in0.0 mm 0.00 in0.0 mm
11:49 AM 46.6°F8.1°C 39.7°F4.3°C 77% 4.5 mph NE7.2 kmh NE 4.9 mph7.9 kmh 29.98 in1015.2 mb 0.00 in0.0 mm 0.00 in0.0 mm 0.00 in0.0 mm
11:54 AM 46.8°F8.2°C 39.6°F4.2°C 76% 2.0 mph NE3.2 kmh NE 4.9 mph7.9 kmh 29.98 in1015.2 mb 0.00 in0.0 mm 0.00 in0.0 mm 0.00 in0.0 mm
11:59 AM 46.8°F8.2°C 39.9°F4.4°C 77% 2.5 mph NNE4.0 kmh NNE 4.9 mph7.9 kmh 29.98 in1015.2 mb 0.00 in0.0 mm 0.00 in0.0 mm 0.00 in0.0 mm
12:04 PM 46.9°F8.3°C 39.7°F4.3°C 76% 2.5 mph ENE4.0 kmh ENE 4.9 mph7.9 kmh 29.98 in1015.2 mb 0.00 in0.0 mm 0.00 in0.0 mm 0.00 in0.0 mm
12:09 PM 46.9°F8.3°C 39.7°F4.3°C 76% 4.5 mph NW7.2 kmh NW 7.4 mph11.9 kmh 29.98 in1015.2 mb 0.00 in0.0 mm 0.00 in0.0 mm 0.00 in0.0 mm
12:14 PM 46.9°F8.3°C 39.7°F4.3°C 76% 5.8 mph NE9.3 kmh NE 7.4 mph11.9 kmh 29.98 in1015.2 mb 0.00 in0.0 mm 0.00 in0.0 mm 0.00 in0.0 mm
12:19 PM 47.1°F8.4°C 40.3°F4.6°C 77% 5.6 mph N9.0 kmh N 7.4 mph11.9 kmh 29.97 in1014.9 mb 0.00 in0.0 mm 0.00 in0.0 mm 0.00 in0.0 mm
12:24 PM 47.1°F8.4°C 39.9°F4.4°C 76% 4.3 mph E6.9 kmh E 7.4 mph11.9 kmh 29.98 in1015.2 mb 0.00 in0.0 mm 0.00 in0.0 mm 0.00 in0.0 mm
12:29 PM 47.5°F8.6°C 39.9°F4.4°C 75% 2.7 mph NE4.3 kmh NE 4.9 mph7.9 kmh 29.97 in1014.9 mb 0.00 in0.0 mm 0.00 in0.0 mm 0.00 in0.0 mm
12:34 PM 47.5°F8.6°C 40.3°F4.6°C 76% 2.7 mph NNE4.3 kmh NNE 4.9 mph7.9 kmh 29.96 in1014.6 mb 0.00 in0.0 mm 0.00 in0.0 mm 0.00 in0.0 mm
12:39 PM 47.5°F8.6°C 40.3°F4.6°C 76% 5.8 mph NE9.3 kmh NE 7.4 mph11.9 kmh 29.96 in1014.6 mb 0.00 in0.0 mm 0.00 in0.0 mm 0.00 in0.0 mm
12:44 PM 47.7°F8.7°C 40.1°F4.5°C 75% 1.3 mph NNE2.1 kmh NNE 2.5 mph4.0 kmh 29.96 in1014.6 mb 0.00 in0.0 mm 0.00 in0.0 mm 0.00 in0.0 mm
12:49 PM 47.8°F8.8°C 40.6°F4.8°C 76% 5.1 mph NE8.2 kmh NE 7.4 mph11.9 kmh 29.96 in1014.6 mb 0.00 in0.0 mm 0.00 in0.0 mm 0.00 in0.0 mm
12:54 PM 48.0°F8.9°C 40.5°F4.7°C 75% 2.7 mph NW4.3 kmh NW 4.9 mph7.9 kmh 29.95 in1014.2 mb 0.00 in0.0 mm 0.00 in0.0 mm 0.00 in0.0 mm
12:59 PM 48.0°F8.9°C 40.1°F4.5°C 74% 2.5 mph N4.0 kmh N 7.4 mph11.9 kmh 29.95 in1014.2 mb 0.00 in0.0 mm 0.00 in0.0 mm 0.00 in0.0 mm
01:04 PM 48.2°F9.0°C 40.3°F4.6°C 74% 5.6 mph NE9.0 kmh NE 9.8 mph15.8 kmh 29.95 in1014.2 mb 0.00 in0.0 mm 0.00 in0.0 mm 0.00 in0.0 mm
01:09 PM 48.4°F9.1°C 40.5°F4.7°C 74% 4.9 mph N7.9 kmh N 4.9 mph7.9 kmh 29.94 in1013.9 mb 0.00 in0.0 mm 0.00 in0.0 mm 0.00 in0.0 mm
01:14 PM 48.6°F9.2°C 41.4°F5.2°C 76% 5.6 mph NNW9.0 kmh NNW 7.4 mph11.9 kmh 29.94 in1013.9 mb 0.00 in0.0 mm 0.00 in0.0 mm 0.00 in0.0 mm
01:19 PM 48.6°F9.2°C 41.4°F5.2°C 76% 1.1 mph E1.8 kmh E 2.5 mph4.0 kmh 29.93 in1013.5 mb 0.00 in0.0 mm 0.00 in0.0 mm 0.00 in0.0 mm
01:24 PM 48.6°F9.2°C 41.0°F5.0°C 75% 6.0 mph NNE9.7 kmh NNE 7.4 mph11.9 kmh 29.93 in1013.5 mb 0.00 in0.0 mm 0.00 in0.0 mm 0.00 in0.0 mm
01:29 PM 48.4°F9.1°C 40.5°F4.7°C 74% 2.5 mph E4.0 kmh E 4.9 mph7.9 kmh 29.93 in1013.5 mb 0.00 in0.0 mm 0.00 in0.0 mm 0.00 in0.0 mm
01:34 PM 48.4°F9.1°C 40.8°F4.9°C 75% 7.2 mph N11.6 kmh N 9.8 mph15.8 kmh 29.93 in1013.5 mb 0.00 in0.0 mm 0.00 in0.0 mm 0.00 in0.0 mm
01:39 PM 48.4°F9.1°C 40.5°F4.7°C 74% 1.8 mph NE2.9 kmh NE 2.5 mph4.0 kmh 29.94 in1013.9 mb 0.00 in0.0 mm 0.00 in0.0 mm 0.00 in0.0 mm
01:44 PM 48.6°F9.2°C 40.3°F4.6°C 73% 4.3 mph NE6.9 kmh NE 4.9 mph7.9 kmh 29.95 in1014.2 mb 0.00 in0.0 mm 0.00 in0.0 mm 0.00 in0.0 mm
01:49 PM 48.9°F9.4°C 40.3°F4.6°C 72% 5.1 mph NE8.2 kmh NE 7.4 mph11.9 kmh 29.94 in1013.9 mb 0.00 in0.0 mm 0.00 in0.0 mm 0.00 in0.0 mm
01:54 PM 49.3°F9.6°C 41.0°F5.0°C 73% Calm Calm -- 29.94 in1013.9 mb 0.00 in0.0 mm 0.00 in0.0 mm 0.00 in0.0 mm
01:59 PM 49.6°F9.8°C 41.4°F5.2°C 73% 5.8 mph NW9.3 kmh NW 7.4 mph11.9 kmh 29.94 in1013.9 mb 0.00 in0.0 mm 0.00 in0.0 mm 0.00 in0.0 mm
02:04 PM 49.8°F9.9°C 41.5°F5.3°C 73% 4.5 mph NNW7.2 kmh NNW 9.8 mph15.8 kmh 29.94 in1013.9 mb 0.00 in0.0 mm 0.00 in0.0 mm 0.00 in0.0 mm
02:09 PM 50.0°F10.0°C 41.4°F5.2°C 72% 4.5 mph ENE7.2 kmh ENE 7.4 mph11.9 kmh 29.93 in1013.5 mb 0.00 in0.0 mm 0.00 in0.0 mm 0.00 in0.0 mm
02:14 PM 50.0°F10.0°C 41.4°F5.2°C 72% 2.9 mph E4.7 kmh E 4.9 mph7.9 kmh 29.93 in1013.5 mb 0.00 in0.0 mm 0.00 in0.0 mm 0.00 in0.0 mm
02:19 PM 50.0°F10.0°C 41.7°F5.4°C 73% 2.9 mph NE4.7 kmh NE 4.9 mph7.9 kmh 29.92 in1013.2 mb 0.00 in0.0 mm 0.00 in0.0 mm 0.00 in0.0 mm
02:24 PM 49.8°F9.9°C 41.5°F5.3°C 73% 4.0 mph NE6.4 kmh NE 7.4 mph11.9 kmh 29.92 in1013.2 mb 0.00 in0.0 mm 0.00 in0.0 mm 0.00 in0.0 mm
02:29 PM 49.6°F9.8°C 41.4°F5.2°C 73% 2.7 mph NNE4.3 kmh NNE 4.9 mph7.9 kmh 29.91 in1012.9 mb 0.00 in0.0 mm 0.00 in0.0 mm 0.00 in0.0 mm
02:34 PM 49.6°F9.8°C 41.4°F5.2°C 73% 6.7 mph N10.8 kmh N 9.8 mph15.8 kmh 29.91 in1012.9 mb 0.00 in0.0 mm 0.00 in0.0 mm 0.00 in0.0 mm
02:39 PM 49.5°F9.7°C 41.5°F5.3°C 74% 4.3 mph ENE6.9 kmh ENE 4.9 mph7.9 kmh 29.92 in1013.2 mb 0.00 in0.0 mm 0.00 in0.0 mm 0.00 in0.0 mm
02:44 PM 49.1°F9.5°C 41.2°F5.1°C 74% 6.5 mph NE10.5 kmh NE 7.4 mph11.9 kmh 29.91 in1012.9 mb 0.00 in0.0 mm 0.00 in0.0 mm 0.00 in0.0 mm
02:49 PM 48.9°F9.4°C 41.0°F5.0°C 74% 5.6 mph NE9.0 kmh NE 7.4 mph11.9 kmh 29.91 in1012.9 mb 0.00 in0.0 mm 0.00 in0.0 mm 0.00 in0.0 mm
02:54 PM 48.7°F9.3°C 41.2°F5.1°C 75% 2.5 mph ENE4.0 kmh ENE 4.9 mph7.9 kmh 29.92 in1013.2 mb 0.00 in0.0 mm 0.00 in0.0 mm 0.00 in0.0 mm
02:59 PM 48.6°F9.2°C 41.0°F5.0°C 75% 3.4 mph NE5.5 kmh NE 4.9 mph7.9 kmh 29.91 in1012.9 mb 0.00 in0.0 mm 0.00 in0.0 mm 0.00 in0.0 mm
03:04 PM 48.2°F9.0°C 41.0°F5.0°C 76% 3.4 mph E5.5 kmh E 4.9 mph7.9 kmh 29.92 in1013.2 mb 0.00 in0.0 mm 0.00 in0.0 mm 0.00 in0.0 mm
03:09 PM 48.0°F8.9°C 40.8°F4.9°C 76% 2.9 mph NNE4.7 kmh NNE 4.9 mph7.9 kmh 29.92 in1013.2 mb 0.00 in0.0 mm 0.00 in0.0 mm 0.00 in0.0 mm
03:14 PM 47.8°F8.8°C 40.6°F4.8°C 76% 7.6 mph NNE12.2 kmh NNE 9.8 mph15.8 kmh 29.90 in1012.5 mb 0.00 in0.0 mm 0.00 in0.0 mm 0.00 in0.0 mm
03:19 PM 47.7°F8.7°C 40.8°F4.9°C 77% 6.0 mph NNE9.7 kmh NNE 7.4 mph11.9 kmh 29.91 in1012.9 mb 0.00 in0.0 mm 0.00 in0.0 mm 0.00 in0.0 mm
03:24 PM 47.3°F8.5°C 40.5°F4.7°C 77% 4.0 mph NE6.4 kmh NE 4.9 mph7.9 kmh 29.90 in1012.5 mb 0.00 in0.0 mm 0.00 in0.0 mm 0.00 in0.0 mm
03:29 PM 46.9°F8.3°C 40.5°F4.7°C 78% 7.4 mph N11.9 kmh N 9.8 mph15.8 kmh 29.91 in1012.9 mb 0.00 in0.0 mm 0.00 in0.0 mm 0.00 in0.0 mm
03:34 PM 46.6°F8.1°C 40.1°F4.5°C 78% 2.9 mph NE4.7 kmh NE 4.9 mph7.9 kmh 29.91 in1012.9 mb 0.00 in0.0 mm 0.00 in0.0 mm 0.00 in0.0 mm
03:39 PM 46.4°F8.0°C 39.9°F4.4°C 78% 2.7 mph E4.3 kmh E 4.9 mph7.9 kmh 29.91 in1012.9 mb 0.00 in0.0 mm 0.00 in0.0 mm 0.00 in0.0 mm
03:44 PM 46.0°F7.8°C 39.6°F4.2°C 78% 4.3 mph 6.9 kmh 7.4 mph11.9 kmh 29.91 in1012.9 mb 0.00 in0.0 mm 0.00 in0.0 mm 0.00 in0.0 mm
03:49 PM 45.9°F7.7°C 39.4°F4.1°C 78% 2.9 mph ENE4.7 kmh ENE 4.9 mph7.9 kmh 29.91 in1012.9 mb 0.00 in0.0 mm 0.00 in0.0 mm 0.00 in0.0 mm
03:54 PM 45.7°F7.6°C 39.2°F4.0°C 78% 4.0 mph E6.4 kmh E 7.4 mph11.9 kmh 29.91 in1012.9 mb 0.00 in0.0 mm 0.00 in0.0 mm 0.00 in0.0 mm
03:59 PM 45.7°F7.6°C 39.2°F4.0°C 78% 4.9 mph ENE7.9 kmh ENE 7.4 mph11.9 kmh 29.91 in1012.9 mb 0.00 in0.0 mm 0.00 in0.0 mm 0.00 in0.0 mm
04:04 PM 45.5°F7.5°C 39.4°F4.1°C 79% 3.4 mph NE5.5 kmh NE 7.4 mph11.9 kmh 29.91 in1012.9 mb 0.00 in0.0 mm 0.00 in0.0 mm 0.00 in0.0 mm
04:09 PM 45.3°F7.4°C 39.2°F4.0°C 79% 5.6 mph ENE9.0 kmh ENE 7.4 mph11.9 kmh 29.91 in1012.9 mb 0.00 in0.0 mm 0.00 in0.0 mm 0.00 in0.0 mm
04:14 PM 45.1°F7.3°C 39.0°F3.9°C 79% 5.8 mph E9.3 kmh E 9.8 mph15.8 kmh 29.91 in1012.9 mb 0.00 in0.0 mm 0.00 in0.0 mm 0.00 in0.0 mm
04:19 PM 45.0°F7.2°C 38.8°F3.8°C 79% 1.1 mph S1.8 kmh S 2.5 mph4.0 kmh 29.91 in1012.9 mb 0.00 in0.0 mm 0.00 in0.0 mm 0.00 in0.0 mm
04:24 PM 44.8°F7.1°C 38.7°F3.7°C 79% 0.4 mph NNE0.6 kmh NNE 2.5 mph4.0 kmh 29.91 in1012.9 mb 0.00 in0.0 mm 0.00 in0.0 mm 0.00 in0.0 mm
04:29 PM 44.6°F7.0°C 38.5°F3.6°C 79% 5.1 mph ENE8.2 kmh ENE 7.4 mph11.9 kmh 29.92 in1013.2 mb 0.00 in0.0 mm 0.00 in0.0 mm 0.00 in0.0 mm
04:34 PM 44.6°F7.0°C 38.8°F3.8°C 80% 1.3 mph ENE2.1 kmh ENE 2.5 mph4.0 kmh 29.91 in1012.9 mb 0.00 in0.0 mm 0.00 in0.0 mm 0.00 in0.0 mm
04:39 PM 44.4°F6.9°C 38.7°F3.7°C 80% 2.7 mph NE4.3 kmh NE 4.9 mph7.9 kmh 29.92 in1013.2 mb 0.00 in0.0 mm 0.00 in0.0 mm 0.00 in0.0 mm
04:44 PM 44.4°F6.9°C 38.7°F3.7°C 80% 3.4 mph NE5.5 kmh NE 4.9 mph7.9 kmh 29.92 in1013.2 mb 0.00 in0.0 mm 0.00 in0.0 mm 0.00 in0.0 mm
04:49 PM 44.2°F6.8°C 38.5°F3.6°C 80% 2.7 mph ENE4.3 kmh ENE 4.9 mph7.9 kmh 29.92 in1013.2 mb 0.00 in0.0 mm 0.00 in0.0 mm 0.00 in0.0 mm
04:54 PM 44.1°F6.7°C 38.3°F3.5°C 80% 4.0 mph NW6.4 kmh NW 4.9 mph7.9 kmh 29.93 in1013.5 mb 0.00 in0.0 mm 0.00 in0.0 mm 0.00 in0.0 mm
04:59 PM 43.9°F6.6°C 38.5°F3.6°C 81% 1.3 mph E2.1 kmh E 2.5 mph4.0 kmh 29.93 in1013.5 mb 0.00 in0.0 mm 0.00 in0.0 mm 0.00 in0.0 mm
05:04 PM 43.7°F6.5°C 38.3°F3.5°C 81% 2.9 mph ESE4.7 kmh ESE 4.9 mph7.9 kmh 29.92 in1013.2 mb 0.00 in0.0 mm 0.00 in0.0 mm 0.00 in0.0 mm
05:09 PM 43.5°F6.4°C 38.1°F3.4°C 81% 4.5 mph N7.2 kmh N 7.4 mph11.9 kmh 29.93 in1013.5 mb 0.00 in0.0 mm 0.00 in0.0 mm 0.00 in0.0 mm
05:14 PM 43.5°F6.4°C 38.1°F3.4°C 81% 1.1 mph ENE1.8 kmh ENE 2.5 mph4.0 kmh 29.94 in1013.9 mb 0.00 in0.0 mm 0.00 in0.0 mm 0.00 in0.0 mm
05:19 PM 43.3°F6.3°C 37.9°F3.3°C 81% Calm Calm -- 29.94 in1013.9 mb 0.00 in0.0 mm 0.00 in0.0 mm 0.00 in0.0 mm
05:24 PM 43.2°F6.2°C 37.8°F3.2°C 81% Calm Calm -- 29.94 in1013.9 mb 0.00 in0.0 mm 0.00 in0.0 mm 0.00 in0.0 mm
05:29 PM 43.2°F6.2°C 37.8°F3.2°C 81% 1.1 mph ENE1.8 kmh ENE 2.5 mph4.0 kmh 29.94 in1013.9 mb 0.00 in0.0 mm 0.00 in0.0 mm 0.00 in0.0 mm
05:34 PM 43.0°F6.1°C 37.6°F3.1°C 81% 0.9 mph E1.4 kmh E 2.5 mph4.0 kmh 29.94 in1013.9 mb 0.00 in0.0 mm 0.00 in0.0 mm 0.00 in0.0 mm
05:39 PM 43.0°F6.1°C 37.6°F3.1°C 81% 2.7 mph NE4.3 kmh NE 4.9 mph7.9 kmh 29.94 in1013.9 mb 0.00 in0.0 mm 0.00 in0.0 mm 0.00 in0.0 mm
05:44 PM 43.0°F6.1°C 37.6°F3.1°C 81% 6.0 mph NE9.7 kmh NE 7.4 mph11.9 kmh 29.94 in1013.9 mb 0.00 in0.0 mm 0.00 in0.0 mm 0.00 in0.0 mm
05:49 PM 42.8°F6.0°C 37.4°F3.0°C 81% 1.8 mph E2.9 kmh E 4.9 mph7.9 kmh 29.95 in1014.2 mb 0.00 in0.0 mm 0.00 in0.0 mm 0.00 in0.0 mm
05:54 PM 42.8°F6.0°C 37.4°F3.0°C 81% 4.9 mph NNE7.9 kmh NNE 4.9 mph7.9 kmh 29.95 in1014.2 mb 0.00 in0.0 mm 0.00 in0.0 mm 0.00 in0.0 mm
05:59 PM 42.8°F6.0°C 37.4°F3.0°C 81% 3.4 mph NW5.5 kmh NW 4.9 mph7.9 kmh 29.96 in1014.6 mb 0.00 in0.0 mm 0.00 in0.0 mm 0.00 in0.0 mm
06:04 PM 42.8°F6.0°C 37.8°F3.2°C 82% 1.8 mph NNE2.9 kmh NNE 2.5 mph4.0 kmh 29.96 in1014.6 mb 0.00 in0.0 mm 0.00 in0.0 mm 0.00 in0.0 mm
06:09 PM 42.8°F6.0°C 37.8°F3.2°C 82% 1.1 mph ENE1.8 kmh ENE 2.5 mph4.0 kmh 29.95 in1014.2 mb 0.00 in0.0 mm 0.00 in0.0 mm 0.00 in0.0 mm
06:14 PM 42.6°F5.9°C 37.6°F3.1°C 82% 1.1 mph E1.8 kmh E 2.5 mph4.0 kmh 29.95 in1014.2 mb 0.00 in0.0 mm 0.00 in0.0 mm 0.00 in0.0 mm
06:19 PM 42.4°F5.8°C 37.4°F3.0°C 82% 4.9 mph E7.9 kmh E 7.4 mph11.9 kmh 29.94 in1013.9 mb 0.00 in0.0 mm 0.00 in0.0 mm 0.00 in0.0 mm
06:24 PM 42.4°F5.8°C 37.4°F3.0°C 82% 5.8 mph NE9.3 kmh NE 7.4 mph11.9 kmh 29.94 in1013.9 mb 0.00 in0.0 mm 0.00 in0.0 mm 0.00 in0.0 mm
06:29 PM 42.3°F5.7°C 37.2°F2.9°C 82% 1.3 mph ENE2.1 kmh ENE 2.5 mph4.0 kmh 29.94 in1013.9 mb 0.00 in0.0 mm 0.00 in0.0 mm 0.00 in0.0 mm
06:34 PM 42.1°F5.6°C 37.0°F2.8°C 82% 5.1 mph E8.2 kmh E 9.8 mph15.8 kmh 29.94 in1013.9 mb 0.00 in0.0 mm 0.00 in0.0 mm 0.00 in0.0 mm
06:39 PM 41.9°F5.5°C 36.9°F2.7°C 82% 4.0 mph NE6.4 kmh NE 4.9 mph7.9 kmh 29.94 in1013.9 mb 0.00 in0.0 mm 0.00 in0.0 mm 0.00 in0.0 mm
06:44 PM 41.9°F5.5°C 36.9°F2.7°C 82% 2.7 mph N4.3 kmh N 4.9 mph7.9 kmh 29.94 in1013.9 mb 0.00 in0.0 mm 0.00 in0.0 mm 0.00 in0.0 mm
06:49 PM 41.9°F5.5°C 36.9°F2.7°C 82% 4.9 mph ENE7.9 kmh ENE 7.4 mph11.9 kmh 29.94 in1013.9 mb 0.00 in0.0 mm 0.00 in0.0 mm 0.00 in0.0 mm
06:54 PM 41.7°F5.4°C 36.7°F2.6°C 82% 0.9 mph E1.4 kmh E 2.5 mph4.0 kmh 29.95 in1014.2 mb 0.00 in0.0 mm 0.00 in0.0 mm 0.00 in0.0 mm
06:59 PM 41.7°F5.4°C 36.7°F2.6°C 82% 3.4 mph SE5.5 kmh SE 4.9 mph7.9 kmh 29.95 in1014.2 mb 0.00 in0.0 mm 0.00 in0.0 mm 0.00 in0.0 mm
07:04 PM 41.7°F5.4°C 36.7°F2.6°C 82% 2.9 mph NE4.7 kmh NE 4.9 mph7.9 kmh 29.96 in1014.6 mb 0.00 in0.0 mm 0.00 in0.0 mm 0.00 in0.0 mm
07:09 PM 41.5°F5.3°C 36.9°F2.7°C 83% 0.4 mph E0.6 kmh E 2.5 mph4.0 kmh 29.95 in1014.2 mb 0.00 in0.0 mm 0.00 in0.0 mm 0.00 in0.0 mm
07:14 PM 41.5°F5.3°C 36.9°F2.7°C 83% 3.4 mph E5.5 kmh E 4.9 mph7.9 kmh 29.96 in1014.6 mb 0.00 in0.0 mm 0.00 in0.0 mm 0.00 in0.0 mm
07:19 PM 41.5°F5.3°C 36.9°F2.7°C 83% 2.9 mph N4.7 kmh N 4.9 mph7.9 kmh 29.97 in1014.9 mb 0.00 in0.0 mm 0.00 in0.0 mm 0.00 in0.0 mm
07:24 PM 41.5°F5.3°C 36.9°F2.7°C 83% 0.4 mph E0.6 kmh E 2.5 mph4.0 kmh 29.97 in1014.9 mb 0.00 in0.0 mm 0.00 in0.0 mm 0.00 in0.0 mm
07:29 PM 41.5°F5.3°C 36.5°F2.5°C 82% 2.7 mph NE4.3 kmh NE 4.9 mph7.9 kmh 29.97 in1014.9 mb 0.00 in0.0 mm 0.00 in0.0 mm 0.00 in0.0 mm
07:34 PM 41.5°F5.3°C 36.9°F2.7°C 83% 1.3 mph NE2.1 kmh NE 2.5 mph4.0 kmh 29.97 in1014.9 mb 0.00 in0.0 mm 0.00 in0.0 mm 0.00 in0.0 mm
07:39 PM 41.5°F5.3°C 36.9°F2.7°C 83% 4.9 mph NE7.9 kmh NE 7.4 mph11.9 kmh 29.97 in1014.9 mb 0.00 in0.0 mm 0.00 in0.0 mm 0.00 in0.0 mm
07:44 PM 41.4°F5.2°C 36.7°F2.6°C 83% 0.9 mph ENE1.4 kmh ENE 2.5 mph4.0 kmh 29.98 in1015.2 mb 0.00 in0.0 mm 0.00 in0.0 mm 0.00 in0.0 mm
07:49 PM 41.4°F5.2°C 36.7°F2.6°C 83% 2.9 mph NE4.7 kmh NE 4.9 mph7.9 kmh 29.98 in1015.2 mb 0.00 in0.0 mm 0.00 in0.0 mm 0.00 in0.0 mm
07:54 PM 41.4°F5.2°C 36.7°F2.6°C 83% 2.5 mph ENE4.0 kmh ENE 4.9 mph7.9 kmh 29.98 in1015.2 mb 0.00 in0.0 mm 0.00 in0.0 mm 0.00 in0.0 mm
07:59 PM 41.4°F5.2°C 36.7°F2.6°C 83% 2.7 mph NE4.3 kmh NE 4.9 mph7.9 kmh 29.98 in1015.2 mb 0.00 in0.0 mm 0.00 in0.0 mm 0.00 in0.0 mm
08:04 PM 41.4°F5.2°C 36.7°F2.6°C 83% Calm Calm -- 29.98 in1015.2 mb 0.00 in0.0 mm 0.00 in0.0 mm 0.00 in0.0 mm
08:09 PM 41.4°F5.2°C 36.7°F2.6°C 83% 2.9 mph NNW4.7 kmh NNW 4.9 mph7.9 kmh 29.98 in1015.2 mb 0.00 in0.0 mm 0.00 in0.0 mm 0.00 in0.0 mm
08:14 PM 41.2°F5.1°C 36.5°F2.5°C 83% 5.8 mph NE9.3 kmh NE 7.4 mph11.9 kmh 29.98 in1015.2 mb 0.00 in0.0 mm 0.00 in0.0 mm 0.00 in0.0 mm
08:19 PM 41.2°F5.1°C 36.5°F2.5°C 83% 2.9 mph NE4.7 kmh NE 4.9 mph7.9 kmh 29.99 in1015.6 mb 0.00 in0.0 mm 0.00 in0.0 mm 0.00 in0.0 mm
08:24 PM 41.2°F5.1°C 36.5°F2.5°C 83% 0.4 mph NE0.6 kmh NE 2.5 mph4.0 kmh 29.99 in1015.6 mb 0.00 in0.0 mm 0.00 in0.0 mm 0.00 in0.0 mm
08:29 PM 41.2°F5.1°C 36.5°F2.5°C 83% 1.8 mph N2.9 kmh N 2.5 mph4.0 kmh 29.98 in1015.2 mb 0.00 in0.0 mm 0.00 in0.0 mm 0.00 in0.0 mm
08:34 PM 41.2°F5.1°C 36.5°F2.5°C 83% 5.6 mph N9.0 kmh N 7.4 mph11.9 kmh 30.00 in1015.9 mb 0.00 in0.0 mm 0.00 in0.0 mm 0.00 in0.0 mm
08:39 PM 41.2°F5.1°C 36.5°F2.5°C 83% 1.1 mph NE1.8 kmh NE 2.5 mph4.0 kmh 29.99 in1015.6 mb 0.00 in0.0 mm 0.00 in0.0 mm 0.00 in0.0 mm
08:44 PM 41.2°F5.1°C 36.5°F2.5°C 83% 1.3 mph ENE2.1 kmh ENE 2.5 mph4.0 kmh 29.99 in1015.6 mb 0.00 in0.0 mm 0.00 in0.0 mm 0.00 in0.0 mm
08:49 PM 41.2°F5.1°C 36.5°F2.5°C 83% Calm Calm -- 29.99 in1015.6 mb 0.00 in0.0 mm 0.00 in0.0 mm 0.00 in0.0 mm
08:54 PM 41.0°F5.0°C 36.3°F2.4°C 83% 1.8 mph NE2.9 kmh NE 2.5 mph4.0 kmh 29.99 in1015.6 mb 0.00 in0.0 mm 0.00 in0.0 mm 0.00 in0.0 mm
08:59 PM 41.0°F5.0°C 36.3°F2.4°C 83% 6.0 mph NE9.7 kmh NE 9.8 mph15.8 kmh 29.98 in1015.2 mb 0.00 in0.0 mm 0.00 in0.0 mm 0.00 in0.0 mm
09:04 PM 41.0°F5.0°C 36.3°F2.4°C 83% 0.9 mph NE1.4 kmh NE 2.5 mph4.0 kmh 29.98 in1015.2 mb 0.00 in0.0 mm 0.00 in0.0 mm 0.00 in0.0 mm
09:09 PM 41.0°F5.0°C 36.3°F2.4°C 83% 4.0 mph NNE6.4 kmh NNE 7.4 mph11.9 kmh 29.99 in1015.6 mb 0.00 in0.0 mm 0.00 in0.0 mm 0.00 in0.0 mm
09:14 PM 41.0°F5.0°C 36.3°F2.4°C 83% 3.4 mph N5.5 kmh N 4.9 mph7.9 kmh 30.00 in1015.9 mb 0.00 in0.0 mm 0.00 in0.0 mm 0.00 in0.0 mm
09:19 PM 40.8°F4.9°C 36.1°F2.3°C 83% 2.9 mph NE4.7 kmh NE 4.9 mph7.9 kmh 30.00 in1015.9 mb 0.00 in0.0 mm 0.00 in0.0 mm 0.00 in0.0 mm
09:24 PM 40.8°F4.9°C 36.1°F2.3°C 83% 2.7 mph ENE4.3 kmh ENE 4.9 mph7.9 kmh 29.99 in1015.6 mb 0.00 in0.0 mm 0.00 in0.0 mm 0.00 in0.0 mm
09:29 PM 40.8°F4.9°C 36.1°F2.3°C 83% 2.5 mph NE4.0 kmh NE 2.5 mph4.0 kmh 29.99 in1015.6 mb 0.00 in0.0 mm 0.00 in0.0 mm 0.00 in0.0 mm
09:34 PM 40.8°F4.9°C 36.1°F2.3°C 83% 1.3 mph NE2.1 kmh NE 2.5 mph4.0 kmh 29.99 in1015.6 mb 0.00 in0.0 mm 0.00 in0.0 mm 0.00 in0.0 mm
09:39 PM 40.8°F4.9°C 36.1°F2.3°C 83% 1.1 mph NE1.8 kmh NE 2.5 mph4.0 kmh 29.97 in1014.9 mb 0.00 in0.0 mm 0.00 in0.0 mm 0.00 in0.0 mm
09:44 PM 40.6°F4.8°C 36.0°F2.2°C 83% 3.4 mph NE5.5 kmh NE 4.9 mph7.9 kmh 29.97 in1014.9 mb 0.00 in0.0 mm 0.00 in0.0 mm 0.00 in0.0 mm
09:49 PM 40.6°F4.8°C 36.0°F2.2°C 83% Calm Calm -- 29.97 in1014.9 mb 0.00 in0.0 mm 0.00 in0.0 mm 0.00 in0.0 mm
09:54 PM 40.6°F4.8°C 36.0°F2.2°C 83% 0.4 mph ESE0.6 kmh ESE 2.5 mph4.0 kmh 29.98 in1015.2 mb 0.00 in0.0 mm 0.00 in0.0 mm 0.00 in0.0 mm
09:59 PM 40.6°F4.8°C 36.0°F2.2°C 83% 4.0 mph NE6.4 kmh NE 4.9 mph7.9 kmh 29.98 in1015.2 mb 0.00 in0.0 mm 0.00 in0.0 mm 0.00 in0.0 mm
10:04 PM 40.5°F4.7°C 36.0°F2.2°C 84% Calm Calm -- 29.98 in1015.2 mb 0.00 in0.0 mm 0.00 in0.0 mm 0.00 in0.0 mm
10:09 PM 40.5°F4.7°C 35.8°F2.1°C 83% 4.0 mph N6.4 kmh N 4.9 mph7.9 kmh 29.97 in1014.9 mb 0.00 in0.0 mm 0.00 in0.0 mm 0.00 in0.0 mm
10:14 PM 40.5°F4.7°C 35.8°F2.1°C 83% 0.4 mph SE0.6 kmh SE 2.5 mph4.0 kmh 29.97 in1014.9 mb 0.00 in0.0 mm 0.00 in0.0 mm 0.00 in0.0 mm
10:19 PM 40.5°F4.7°C 35.8°F2.1°C 83% 2.0 mph ENE3.2 kmh ENE 2.5 mph4.0 kmh 29.97 in1014.9 mb 0.00 in0.0 mm 0.00 in0.0 mm 0.00 in0.0 mm
10:24 PM 40.5°F4.7°C 36.0°F2.2°C 84% 1.1 mph NE1.8 kmh NE 4.9 mph7.9 kmh 29.96 in1014.6 mb 0.00 in0.0 mm 0.00 in0.0 mm 0.00 in0.0 mm
10:29 PM 40.5°F4.7°C 35.8°F2.1°C 83% 2.7 mph NE4.3 kmh NE 4.9 mph7.9 kmh 29.96 in1014.6 mb 0.00 in0.0 mm 0.00 in0.0 mm 0.00 in0.0 mm
10:34 PM 40.5°F4.7°C 36.0°F2.2°C 84% 1.3 mph ENE2.1 kmh ENE 2.5 mph4.0 kmh 29.96 in1014.6 mb 0.00 in0.0 mm 0.00 in0.0 mm 0.00 in0.0 mm
10:39 PM 40.5°F4.7°C 36.0°F2.2°C 84% 1.8 mph NE2.9 kmh NE 4.9 mph7.9 kmh 29.95 in1014.2 mb 0.00 in0.0 mm 0.00 in0.0 mm 0.00 in0.0 mm
10:44 PM 40.5°F4.7°C 36.0°F2.2°C 84% 0.4 mph E0.6 kmh E 2.5 mph4.0 kmh 29.95 in1014.2 mb 0.00 in0.0 mm 0.00 in0.0 mm 0.00 in0.0 mm
10:49 PM 40.5°F4.7°C 36.0°F2.2°C 84% 2.9 mph NNE4.7 kmh NNE 4.9 mph7.9 kmh 29.96 in1014.6 mb 0.00 in0.0 mm 0.00 in0.0 mm 0.00 in0.0 mm
10:54 PM 40.5°F4.7°C 36.0°F2.2°C 84% 1.3 mph SE2.1 kmh SE 2.5 mph4.0 kmh 29.95 in1014.2 mb 0.00 in0.0 mm 0.00 in0.0 mm 0.00 in0.0 mm
10:59 PM 40.3°F4.6°C 35.8°F2.1°C 84% 5.8 mph NE9.3 kmh NE 7.4 mph11.9 kmh 29.94 in1013.9 mb 0.00 in0.0 mm 0.00 in0.0 mm 0.00 in0.0 mm
11:04 PM 40.3°F4.6°C 35.6°F2.0°C 83% 1.3 mph NE2.1 kmh NE 2.5 mph4.0 kmh 29.94 in1013.9 mb 0.00 in0.0 mm 0.00 in0.0 mm 0.00 in0.0 mm
11:09 PM 40.3°F4.6°C 35.6°F2.0°C 83% Calm Calm -- 29.93 in1013.5 mb 0.00 in0.0 mm 0.00 in0.0 mm 0.00 in0.0 mm
11:14 PM 40.3°F4.6°C 35.8°F2.1°C 84% 2.7 mph N4.3 kmh N 4.9 mph7.9 kmh 29.93 in1013.5 mb 0.00 in0.0 mm 0.00 in0.0 mm 0.00 in0.0 mm
11:19 PM 40.3°F4.6°C 35.6°F2.0°C 83% 1.8 mph E2.9 kmh E 4.9 mph7.9 kmh 29.93 in1013.5 mb 0.00 in0.0 mm 0.00 in0.0 mm 0.00 in0.0 mm
11:24 PM 40.1°F4.5°C 35.4°F1.9°C 83% 2.7 mph NE4.3 kmh NE 4.9 mph7.9 kmh 29.93 in1013.5 mb 0.00 in0.0 mm 0.00 in0.0 mm 0.00 in0.0 mm
11:29 PM 40.1°F4.5°C 35.6°F2.0°C 84% 2.0 mph N3.2 kmh N 4.9 mph7.9 kmh 29.93 in1013.5 mb 0.00 in0.0 mm 0.00 in0.0 mm 0.00 in0.0 mm
11:34 PM 40.1°F4.5°C 35.4°F1.9°C 83% 2.5 mph NE4.0 kmh NE 4.9 mph7.9 kmh 29.93 in1013.5 mb 0.00 in0.0 mm 0.00 in0.0 mm 0.00 in0.0 mm
11:39 PM 40.1°F4.5°C 35.6°F2.0°C 84% 0.4 mph NE0.6 kmh NE 2.5 mph4.0 kmh 29.93 in1013.5 mb 0.00 in0.0 mm 0.00 in0.0 mm 0.00 in0.0 mm
11:44 PM 40.1°F4.5°C 35.6°F2.0°C 84% 6.0 mph N9.7 kmh N 9.8 mph15.8 kmh 29.93 in1013.5 mb 0.00 in0.0 mm 0.00 in0.0 mm 0.00 in0.0 mm
11:49 PM 40.1°F4.5°C 35.6°F2.0°C 84% 7.2 mph N11.6 kmh N 7.4 mph11.9 kmh 29.92 in1013.2 mb 0.00 in0.0 mm 0.00 in0.0 mm 0.00 in0.0 mm
11:54 PM 39.9°F4.4°C 35.4°F1.9°C 84% 2.9 mph NE4.7 kmh NE 4.9 mph7.9 kmh 29.91 in1012.9 mb 0.00 in0.0 mm 0.00 in0.0 mm 0.00 in0.0 mm
11:59 PM 39.9°F4.4°C 35.4°F1.9°C 84% 3.4 mph NNE5.5 kmh NNE 4.9 mph7.9 kmh 29.91 in1012.9 mb 0.00 in0.0 mm 0.00 in0.0 mm 0.00 in0.0 mm